Time;durP1;ratioP1;P1;durP2;ratioP2;P2;SDS_P1;SDS_P2;PMS_P1;PMS_P2;Temp;Humidity;BMP_temperature;BMP_pressure;BME280_temperature;BME280_humidity;BME280_pressure;Samples;Min_cycle;Max_cycle;Signal;HPM_P1;HPM_P2
2023/08/28 00:01:54;;;;;;;2.10;1.90;;;21.60;81.30;;;;;;5091595;28;20201;-71
2023/08/28 00:04:21;;;;;;;2.10;1.70;;;21.50;81.30;;;;;;5083095;28;20661;-72
2023/08/28 00:06:48;;;;;;;1.93;1.70;;;21.50;81.30;;;;;;5076226;28;20216;-72
2023/08/28 00:09:16;;;;;;;1.87;1.70;;;21.50;81.50;;;;;;5084231;28;20196;-72
2023/08/28 00:11:44;;;;;;;2.47;1.83;;;21.40;81.40;;;;;;5074930;28;20708;-71
2023/08/28 00:14:10;;;;;;;2.33;1.90;;;21.50;81.60;;;;;;5073898;28;20227;-72
2023/08/28 00:16:37;;;;;;;2.43;2.00;;;21.40;82.30;;;;;;5074946;28;20201;-72
2023/08/28 00:19:05;;;;;;;3.47;1.60;;;21.40;81.70;;;;;;5075309;28;20651;-71
2023/08/28 00:21:32;;;;;;;2.27;1.80;;;21.40;81.80;;;;;;5073098;28;20208;-71
2023/08/28 00:23:59;;;;;;;2.37;1.60;;;21.40;81.80;;;;;;5072961;28;20239;-71
2023/08/28 00:26:27;;;;;;;1.60;1.50;;;21.40;82.00;;;;;;5081364;28;20205;-71
2023/08/28 00:28:54;;;;;;;2.00;1.90;;;21.40;82.20;;;;;;5090219;28;20324;-71
2023/08/28 00:31:21;;;;;;;2.20;2.00;;;21.30;82.10;;;;;;5090851;28;20580;-71
2023/08/28 00:33:48;;;;;;;4.10;2.30;;;21.30;82.30;;;;;;5091163;28;20208;-72
2023/08/28 00:36:16;;;;;;;3.30;1.93;;;21.20;82.50;;;;;;5074280;28;20435;-72
2023/08/28 00:38:43;;;;;;;1.93;1.70;;;21.30;82.50;;;;;;5084007;28;20260;-72
2023/08/28 00:41:11;;;;;;;2.40;2.00;;;21.20;82.40;;;;;;5080282;28;20189;-72
2023/08/28 00:43:39;;;;;;;1.83;1.73;;;21.20;82.50;;;;;;5083625;28;20633;-72
2023/08/28 00:46:06;;;;;;;2.47;1.90;;;21.20;82.50;;;;;;5068170;28;20197;-72
2023/08/28 00:48:34;;;;;;;3.03;1.80;;;21.10;82.30;;;;;;5075273;28;20230;-71
2023/08/28 00:51:01;;;;;;;2.10;1.80;;;21.10;82.60;;;;;;5085306;28;20228;-72
2023/08/28 00:53:28;;;;;;;2.10;1.87;;;21.10;82.70;;;;;;5090636;28;20671;-72
2023/08/28 00:55:55;;;;;;;2.73;1.90;;;21.10;82.80;;;;;;5076817;28;20216;-72
2023/08/28 00:58:22;;;;;;;2.63;1.87;;;21.10;83.00;;;;;;5076223;28;20222;-72
2023/08/28 01:00:51;;;;;;;2.37;1.60;;;21.10;83.10;;;;;;5085613;28;20580;-72
2023/08/28 01:03:17;;;;;;;2.70;1.70;;;21.10;83.20;;;;;;5078246;28;20203;-72
2023/08/28 01:05:50;;;;;;;2.53;1.60;;;21.10;83.30;;;;;;5071145;28;20224;-72
2023/08/28 01:08:28;;;;;;;4.43;1.97;;;21.10;83.50;;;;;;5089147;28;20193;-72
2023/08/28 01:10:58;;;;;;;1.90;1.80;;;21.10;83.70;;;;;;5086705;28;20216;-71
2023/08/28 01:13:35;;;;;;;3.37;1.87;;;21.10;83.60;;;;;;5075326;28;20758;-70
2023/08/28 01:16:04;;;;;;;2.90;1.80;;;21.10;83.90;;;;;;5079701;28;20201;-71
2023/08/28 01:18:32;;;;;;;2.90;2.03;;;21.10;83.80;;;;;;5076690;28;20674;-71
2023/08/28 01:21:00;;;;;;;1.90;1.80;;;21.10;83.80;;;;;;5075728;28;20235;-72
2023/08/28 01:23:32;;;;;;;3.53;2.00;;;21.10;83.90;;;;;;5090547;28;20207;-72
2023/08/28 01:26:01;;;;;;;2.20;2.00;;;21.10;83.80;;;;;;5089735;28;20225;-71
2023/08/28 01:28:28;;;;;;;2.10;1.50;;;21.10;83.80;;;;;;5076480;28;20316;-72
2023/08/28 01:30:55;;;;;;;2.93;2.00;;;21.10;83.90;;;;;;5072498;28;20221;-71
2023/08/28 01:33:22;;;;;;;2.93;1.93;;;21.10;83.90;;;;;;5082347;28;20197;-71
2023/08/28 01:35:54;;;;;;;1.83;1.60;;;21.00;83.80;;;;;;5090130;28;20243;-71
2023/08/28 01:38:28;;;;;;;1.80;1.70;;;21.00;84.10;;;;;;5090841;28;20236;-72
2023/08/28 01:40:58;;;;;;;3.80;2.10;;;21.10;84.10;;;;;;5089255;28;20197;-72
2023/08/28 01:43:32;;;;;;;2.17;1.73;;;21.00;84.00;;;;;;5075125;28;20205;-72
2023/08/28 01:45:59;;;;;;;2.43;1.70;;;21.00;84.10;;;;;;5072135;28;20619;-71
2023/08/28 01:48:27;;;;;;;1.87;1.77;;;21.00;84.20;;;;;;5085012;28;20215;-72
2023/08/28 01:50:54;;;;;;;3.43;1.97;;;20.90;84.10;;;;;;5081745;28;20217;-73
2023/08/28 01:53:21;;;;;;;1.70;1.60;;;20.90;83.90;;;;;;5071839;28;20201;-71
2023/08/28 01:56:17;;;;;;;1.83;1.70;;;20.90;84.00;;;;;;5071762;28;20209;-72
2023/08/28 01:58:48;;;;;;;1.80;1.70;;;20.90;84.10;;;;;;5072894;28;20193;-71
2023/08/28 02:01:15;;;;;;;2.30;1.63;;;20.80;84.00;;;;;;5070756;28;20694;-71
2023/08/28 02:03:41;;;;;;;3.47;1.80;;;20.80;84.00;;;;;;5070962;28;20231;-71
2023/08/28 02:06:09;;;;;;;3.37;2.03;;;20.80;84.00;;;;;;5071834;28;20205;-71
2023/08/28 02:08:36;;;;;;;2.27;1.80;;;20.80;84.00;;;;;;5077160;28;20212;-72
2023/08/28 02:11:03;;;;;;;4.97;1.93;;;20.80;84.00;;;;;;5089366;28;20232;-72
2023/08/28 02:13:30;;;;;;;2.67;1.70;;;20.80;84.10;;;;;;5071455;28;20205;-72
2023/08/28 02:15:58;;;;;;;2.03;1.70;;;20.80;84.20;;;;;;5075340;28;20220;-72
2023/08/28 02:18:25;;;;;;;2.00;1.60;;;20.80;84.40;;;;;;5090988;28;20235;-72
2023/08/28 02:20:52;;;;;;;2.63;1.77;;;20.80;84.60;;;;;;5091822;28;20254;-72
2023/08/28 02:23:19;;;;;;;2.87;1.80;;;20.80;84.80;;;;;;5084439;28;20202;-72
2023/08/28 02:25:48;;;;;;;2.63;2.00;;;20.70;84.70;;;;;;5071738;28;20213;-72
2023/08/28 02:28:14;;;;;;;3.67;1.97;;;20.70;84.80;;;;;;5078833;28;20592;-71
2023/08/28 02:30:41;;;;;;;2.13;1.90;;;20.70;84.80;;;;;;5071059;28;20201;-72
2023/08/28 02:33:09;;;;;;;3.93;1.93;;;20.70;84.80;;;;;;5071996;28;20288;-72
2023/08/28 02:35:36;;;;;;;4.73;2.00;;;20.70;85.70;;;;;;5070512;28;20649;-72
2023/08/28 02:38:06;;;;;;;3.37;2.00;;;20.70;84.80;;;;;;5084033;28;20233;-72
2023/08/28 02:40:33;;;;;;;1.83;1.70;;;20.60;84.80;;;;;;5090183;28;20220;-72
2023/08/28 02:43:05;;;;;;;1.97;1.80;;;20.60;85.20;;;;;;5085456;28;20212;-72
2023/08/28 02:45:32;;;;;;;2.77;1.47;;;20.60;84.70;;;;;;5079312;28;20200;-71
2023/08/28 02:47:59;;;;;;;2.73;1.90;;;20.60;84.70;;;;;;5069968;28;20592;-72
2023/08/28 02:50:27;;;;;;;2.20;2.00;;;20.60;84.70;;;;;;5087557;28;20208;-70
2023/08/28 02:52:54;;;;;;;2.30;2.10;;;20.60;84.80;;;;;;5071477;28;20235;-72
2023/08/28 02:55:22;;;;;;;2.83;2.27;;;20.50;84.70;;;;;;5070684;28;20198;-72
2023/08/28 02:57:49;;;;;;;2.50;2.30;;;20.50;84.90;;;;;;5076227;28;20203;-72
2023/08/28 03:00:18;;;;;;;2.90;1.77;;;20.50;85.20;;;;;;5068512;28;20229;-72
2023/08/28 03:02:45;;;;;;;3.07;1.53;;;20.50;85.20;;;;;;5074698;28;20595;-71
2023/08/28 03:05:12;;;;;;;3.37;1.93;;;20.50;85.10;;;;;;5074121;28;20207;-72
2023/08/28 03:07:40;;;;;;;4.03;1.90;;;20.50;85.10;;;;;;5090657;28;20254;-71
2023/08/28 03:10:08;;;;;;;2.77;2.17;;;20.40;85.10;;;;;;5090021;28;20211;-71
2023/08/28 03:12:35;;;;;;;3.17;2.10;;;20.50;85.10;;;;;;5085653;28;20225;-72
2023/08/28 03:15:03;;;;;;;2.67;2.00;;;20.40;85.00;;;;;;5092446;28;20197;-71
2023/08/28 03:17:30;;;;;;;2.00;1.90;;;20.40;85.10;;;;;;5093237;28;20224;-71
2023/08/28 03:19:56;;;;;;;2.10;1.90;;;20.30;85.20;;;;;;5076934;28;20378;-71
2023/08/28 03:22:23;;;;;;;2.50;1.80;;;20.30;85.10;;;;;;5075236;28;20193;-72
2023/08/28 03:24:53;;;;;;;2.97;1.90;;;20.30;85.90;;;;;;5073355;28;20221;-72
2023/08/28 03:27:20;;;;;;;1.80;1.70;;;20.30;85.50;;;;;;5073146;28;20197;-72
2023/08/28 03:29:46;;;;;;;2.60;2.03;;;20.20;85.40;;;;;;5087015;28;20209;-71
2023/08/28 03:32:14;;;;;;;2.00;1.90;;;20.30;85.50;;;;;;5093342;28;20587;-71
2023/08/28 03:34:41;;;;;;;2.53;1.90;;;20.30;85.60;;;;;;5075249;28;20216;-72
2023/08/28 03:37:08;;;;;;;3.53;2.00;;;20.20;85.40;;;;;;5072986;28;20216;-72
2023/08/28 03:39:35;;;;;;;3.90;1.97;;;20.20;85.40;;;;;;5072960;28;20225;-72
2023/08/28 03:42:03;;;;;;;2.50;1.67;;;20.20;85.30;;;;;;5053694;28;20210;-72
2023/08/28 03:44:30;;;;;;;3.37;2.00;;;20.20;85.50;;;;;;5073931;28;20235;-71
2023/08/28 03:46:57;;;;;;;2.33;2.03;;;20.20;85.40;;;;;;5072692;28;20668;-72
2023/08/28 03:49:23;;;;;;;2.30;2.10;;;20.20;85.40;;;;;;5074470;28;20211;-72
2023/08/28 03:51:50;;;;;;;3.27;2.10;;;20.20;85.40;;;;;;5074544;28;20221;-72
2023/08/28 03:54:17;;;;;;;2.37;2.10;;;20.10;85.20;;;;;;5088178;28;20206;-72
2023/08/28 03:56:44;;;;;;;2.47;2.20;;;20.10;85.10;;;;;;5091998;28;20228;-72
2023/08/28 03:59:12;;;;;;;2.50;2.20;;;20.20;85.20;;;;;;5083233;28;20204;-71
2023/08/28 04:01:39;;;;;;;3.37;1.97;;;20.10;85.30;;;;;;5085537;28;20689;-72
2023/08/28 04:04:06;;;;;;;2.10;1.90;;;20.10;85.30;;;;;;5085833;28;20199;-71
2023/08/28 04:06:33;;;;;;;3.20;1.93;;;20.20;85.50;;;;;;5092605;28;20200;-72
2023/08/28 04:09:00;;;;;;;4.80;2.20;;;20.10;85.50;;;;;;5106856;28;20276;-71
2023/08/28 04:11:27;;;;;;;2.30;2.00;;;20.10;85.50;;;;;;5097639;28;20209;-71
2023/08/28 04:13:54;;;;;;;2.93;2.03;;;20.10;85.50;;;;;;5081577;28;20204;-72
2023/08/28 04:16:22;;;;;;;2.90;2.10;;;20.10;85.70;;;;;;5091794;28;20224;-72
2023/08/28 04:18:49;;;;;;;2.87;2.00;;;20.10;85.80;;;;;;5092210;28;20214;-72
2023/08/28 04:21:15;;;;;;;4.07;2.40;;;20.10;85.80;;;;;;5092442;28;20201;-72
2023/08/28 04:23:41;;;;;;;1.97;1.83;;;20.00;85.70;;;;;;5082970;28;20219;-72
2023/08/28 04:26:08;;;;;;;4.90;2.37;;;20.10;85.80;;;;;;5072247;28;20212;-72
2023/08/28 04:28:35;;;;;;;2.77;2.00;;;20.00;85.70;;;;;;5082616;28;20240;-71
2023/08/28 04:31:02;;;;;;;5.00;2.30;;;20.00;85.70;;;;;;5093938;28;20205;-72
2023/08/28 04:33:31;;;;;;;2.77;2.37;;;20.00;85.70;;;;;;5087433;28;20221;-71
2023/08/28 04:35:58;;;;;;;2.10;1.90;;;20.00;85.80;;;;;;5071837;28;20229;-70
2023/08/28 04:38:25;;;;;;;4.43;1.80;;;20.00;85.70;;;;;;5071746;28;20229;-71
2023/08/28 04:40:53;;;;;;;2.60;2.00;;;20.00;85.70;;;;;;5072111;28;20220;-72
2023/08/28 04:43:20;;;;;;;2.60;2.10;;;20.00;85.80;;;;;;5076236;28;20618;-72
2023/08/28 04:45:49;;;;;;;2.00;1.77;;;20.00;85.80;;;;;;5072348;28;20208;-72
2023/08/28 04:48:16;;;;;;;4.03;2.10;;;20.00;86.10;;;;;;5086211;28;20223;-72
2023/08/28 04:50:44;;;;;;;3.47;2.10;;;20.00;86.00;;;;;;5074917;28;20201;-71
2023/08/28 04:53:11;;;;;;;3.43;2.10;;;20.00;86.10;;;;;;5083832;28;20220;-72
2023/08/28 04:55:40;;;;;;;3.70;2.10;;;20.00;86.30;;;;;;5055771;28;20280;-72
2023/08/28 04:58:07;;;;;;;2.83;2.10;;;20.00;86.50;;;;;;5071572;28;20697;-71
2023/08/28 05:00:34;;;;;;;3.27;2.33;;;20.00;86.50;;;;;;5079084;28;20647;-71
2023/08/28 05:03:00;;;;;;;2.63;2.10;;;20.00;86.40;;;;;;5061518;28;20284;-70
2023/08/28 05:05:27;;;;;;;2.67;2.07;;;20.00;86.50;;;;;;5091443;28;20228;-70
2023/08/28 05:07:55;;;;;;;3.70;2.00;;;20.00;86.50;;;;;;5086319;28;20315;-72
2023/08/28 05:10:22;;;;;;;2.87;2.30;;;20.00;86.50;;;;;;5090814;28;20821;-72
2023/08/28 05:12:49;;;;;;;3.70;2.20;;;20.00;86.50;;;;;;5091433;28;20216;-71
2023/08/28 05:15:19;;;;;;;4.97;2.50;;;20.00;86.40;;;;;;5089148;28;20205;-71
2023/08/28 05:17:47;;;;;;;2.40;2.00;;;20.00;86.50;;;;;;5072570;28;20205;-71
2023/08/28 05:20:14;;;;;;;2.43;2.20;;;20.10;86.50;;;;;;5077463;28;20601;-72
2023/08/28 05:22:41;;;;;;;3.00;2.00;;;20.00;86.40;;;;;;5086044;28;20215;-72
2023/08/28 05:25:10;;;;;;;2.77;2.20;;;20.10;86.60;;;;;;5089802;28;20226;-72
2023/08/28 05:27:36;;;;;;;4.37;2.60;;;20.00;86.60;;;;;;5076100;28;20305;-70
2023/08/28 05:30:04;;;;;;;2.23;1.90;;;20.00;86.60;;;;;;5072674;28;20207;-70
2023/08/28 05:32:31;;;;;;;2.50;2.27;;;20.00;86.70;;;;;;5088055;28;20586;-71
2023/08/28 05:34:58;;;;;;;2.60;2.23;;;20.00;86.70;;;;;;5083818;28;20557;-71
2023/08/28 05:37:25;;;;;;;3.13;2.03;;;20.00;86.80;;;;;;5070939;28;20296;-72
2023/08/28 05:39:52;;;;;;;3.23;2.50;;;20.10;86.90;;;;;;5071468;28;20228;-71
2023/08/28 05:42:21;;;;;;;3.30;2.30;;;20.10;86.90;;;;;;5085691;28;20208;-71
2023/08/28 05:44:48;;;;;;;2.40;2.20;;;20.00;86.90;;;;;;5073907;28;20221;-71
2023/08/28 05:47:15;;;;;;;3.80;2.53;;;20.00;86.70;;;;;;5077824;28;20202;-71
2023/08/28 05:49:42;;;;;;;2.90;2.20;;;20.00;86.70;;;;;;5090614;28;20307;-71
2023/08/28 05:52:08;;;;;;;3.60;2.43;;;20.00;86.90;;;;;;5090750;28;20243;-70
2023/08/28 05:54:35;;;;;;;2.77;2.50;;;20.00;86.90;;;;;;5084629;28;20205;-71
2023/08/28 05:57:04;;;;;;;2.53;2.13;;;20.00;87.00;;;;;;5068801;28;20225;-71
2023/08/28 05:59:32;;;;;;;3.80;2.50;;;20.00;87.00;;;;;;5070764;28;20676;-70
2023/08/28 06:01:59;;;;;;;3.07;2.47;;;20.10;87.00;;;;;;5086376;28;20457;-71
2023/08/28 06:04:27;;;;;;;2.60;2.33;;;20.10;87.00;;;;;;5091042;28;20234;-72
2023/08/28 06:06:54;;;;;;;2.47;2.27;;;20.00;87.00;;;;;;5081442;28;20242;-71
2023/08/28 06:09:21;;;;;;;3.20;2.47;;;20.00;87.00;;;;;;5074758;28;20220;-72
2023/08/28 06:11:48;;;;;;;2.80;2.60;;;20.00;87.20;;;;;;5073447;28;20193;-69
2023/08/28 06:14:14;;;;;;;3.30;2.70;;;20.10;87.30;;;;;;5079437;28;20212;-70
2023/08/28 06:16:42;;;;;;;4.07;2.30;;;20.10;87.40;;;;;;5084915;28;20291;-71
2023/08/28 06:19:09;;;;;;;3.33;2.63;;;20.10;87.40;;;;;;5080359;28;20196;-71
2023/08/28 06:21:36;;;;;;;2.40;2.20;;;20.10;88.10;;;;;;5091511;28;20221;-71
2023/08/28 06:24:03;;;;;;;3.07;2.37;;;20.10;87.30;;;;;;5080684;28;20254;-71
2023/08/28 06:26:30;;;;;;;2.60;2.40;;;20.10;87.30;;;;;;5069351;28;20201;-71
2023/08/28 06:28:57;;;;;;;2.80;2.60;;;20.10;87.50;;;;;;5074004;28;20212;-71
2023/08/28 06:31:24;;;;;;;2.27;2.07;;;20.10;87.50;;;;;;5070406;28;20216;-70
2023/08/28 06:33:53;;;;;;;3.40;2.40;;;20.20;87.60;;;;;;5074977;28;20235;-70
2023/08/28 06:36:20;;;;;;;2.90;2.50;;;20.20;87.70;;;;;;5070232;28;20209;-71
2023/08/28 06:38:49;;;;;;;2.40;2.20;;;20.20;87.70;;;;;;5071231;28;20301;-71
2023/08/28 06:41:17;;;;;;;3.13;2.83;;;20.20;87.60;;;;;;5069748;28;20346;-71
2023/08/28 06:43:43;;;;;;;2.90;2.70;;;20.20;87.60;;;;;;5072705;28;20193;-71
2023/08/28 06:46:10;;;;;;;4.63;2.80;;;20.20;87.60;;;;;;5069909;28;20308;-72
2023/08/28 06:48:37;;;;;;;3.37;3.07;;;20.20;87.50;;;;;;5072173;28;20213;-70
2023/08/28 06:51:05;;;;;;;3.70;3.00;;;20.30;87.50;;;;;;5075417;28;20636;-71
2023/08/28 06:53:32;;;;;;;4.77;3.07;;;20.30;87.60;;;;;;5074658;28;20227;-71
2023/08/28 06:55:59;;;;;;;3.27;2.97;;;20.30;87.60;;;;;;5073735;28;20306;-71
2023/08/28 06:58:26;;;;;;;3.10;2.80;;;20.30;87.60;;;;;;5073184;28;20320;-71
2023/08/28 07:00:53;;;;;;;3.30;3.00;;;20.30;87.50;;;;;;5077934;28;20219;-71
2023/08/28 07:03:20;;;;;;;5.27;3.10;;;20.30;87.50;;;;;;5073819;28;20240;-71
2023/08/28 07:05:46;;;;;;;4.10;3.10;;;20.30;87.50;;;;;;5074399;28;20213;-71
2023/08/28 07:08:14;;;;;;;4.03;3.50;;;20.30;87.50;;;;;;5074128;28;20205;-71
2023/08/28 07:10:42;;;;;;;3.00;2.80;;;20.30;87.40;;;;;;5074677;28;20704;-70
2023/08/28 07:13:09;;;;;;;3.97;3.67;;;20.30;87.30;;;;;;5073874;28;20222;-71
2023/08/28 07:15:54;;;;;;;3.90;2.87;;;20.40;87.50;;;;;;5073474;28;20699;-72
2023/08/28 07:18:20;;;;;;;4.37;2.93;;;20.40;87.50;;;;;;5072976;28;20286;-72
2023/08/28 07:20:47;;;;;;;5.20;3.80;;;20.50;87.30;;;;;;5076857;28;20219;-72
2023/08/28 07:23:15;;;;;;;3.47;3.13;;;20.50;87.40;;;;;;5091832;28;20228;-71
2023/08/28 07:25:44;;;;;;;3.30;2.90;;;20.60;87.20;;;;;;5093412;28;20213;-72
2023/08/28 07:28:11;;;;;;;3.30;2.80;;;20.60;86.90;;;;;;5089525;28;20633;-71
2023/08/28 07:30:38;;;;;;;3.27;2.50;;;20.60;86.60;;;;;;5085180;28;20209;-72
2023/08/28 07:33:05;;;;;;;3.23;2.93;;;20.70;86.50;;;;;;5079366;28;20217;-71
2023/08/28 07:35:35;;;;;;;2.80;2.60;;;20.70;86.10;;;;;;5083756;28;20712;-72
2023/08/28 07:38:06;;;;;;;3.07;2.77;;;20.70;85.80;;;;;;5082890;28;20231;-72
2023/08/28 07:40:35;;;;;;;3.57;2.60;;;20.80;85.70;;;;;;5086056;28;20321;-72
2023/08/28 07:43:03;;;;;;;2.97;2.43;;;20.80;85.40;;;;;;5085324;28;20209;-72
2023/08/28 07:45:30;;;;;;;3.00;2.43;;;20.80;85.20;;;;;;5085029;28;20244;-71
2023/08/28 07:47:58;;;;;;;3.37;2.73;;;20.80;84.80;;;;;;5081223;28;20229;-71
2023/08/28 07:50:26;;;;;;;2.90;2.30;;;20.80;84.60;;;;;;5075162;28;20204;-71
2023/08/28 07:52:53;;;;;;;4.40;2.37;;;20.90;84.60;;;;;;5073024;28;20235;-71
2023/08/28 07:55:19;;;;;;;3.10;2.80;;;20.80;84.20;;;;;;5074912;28;20207;-71
2023/08/28 07:57:48;;;;;;;2.93;2.50;;;20.90;84.20;;;;;;5072121;28;20213;-71
2023/08/28 08:00:18;;;;;;;2.50;2.23;;;20.90;84.30;;;;;;5072332;28;20236;-71
2023/08/28 08:02:45;;;;;;;2.57;2.20;;;21.00;84.40;;;;;;5075154;28;20541;-71
2023/08/28 08:05:12;;;;;;;2.63;2.43;;;21.00;84.30;;;;;;5093988;28;20735;-71
2023/08/28 08:07:40;;;;;;;3.00;2.60;;;21.10;84.40;;;;;;5092422;28;20717;-72
2023/08/28 08:10:08;;;;;;;2.97;2.67;;;21.10;84.30;;;;;;5092965;28;20245;-71
2023/08/28 08:12:35;;;;;;;3.10;2.70;;;21.00;83.80;;;;;;5091129;28;20224;-71
2023/08/28 08:15:04;;;;;;;3.10;2.80;;;21.00;84.50;;;;;;5092357;28;20215;-72
2023/08/28 08:17:31;;;;;;;5.37;2.70;;;21.10;83.50;;;;;;5088516;28;20225;-72
2023/08/28 08:19:58;;;;;;;3.27;2.50;;;21.10;83.40;;;;;;5072495;28;20320;-72
2023/08/28 08:22:25;;;;;;;4.07;2.97;;;21.10;83.50;;;;;;5071094;28;20211;-72
2023/08/28 08:24:53;;;;;;;3.13;2.60;;;21.10;83.40;;;;;;5072181;28;20193;-72
2023/08/28 08:27:19;;;;;;;3.03;2.27;;;21.10;83.30;;;;;;5078223;28;20284;-71
2023/08/28 08:29:48;;;;;;;2.23;2.03;;;21.20;83.40;;;;;;5072000;28;20204;-71
2023/08/28 08:32:17;;;;;;;3.40;2.10;;;21.20;83.30;;;;;;5084505;28;20321;-71
2023/08/28 08:34:44;;;;;;;3.13;2.10;;;21.20;83.20;;;;;;5090700;28;20635;-71
2023/08/28 08:37:11;;;;;;;3.13;2.73;;;21.20;82.70;;;;;;5074570;28;20205;-71
2023/08/28 08:39:38;;;;;;;4.23;2.30;;;21.20;83.60;;;;;;5073209;28;20228;-71
2023/08/28 08:42:05;;;;;;;2.73;2.03;;;21.20;82.60;;;;;;5073064;28;20619;-71
2023/08/28 08:44:33;;;;;;;2.50;2.30;;;21.20;82.50;;;;;;5072520;28;20221;-71
2023/08/28 08:47:02;;;;;;;2.50;2.17;;;21.20;82.30;;;;;;5076984;28;20205;-70
2023/08/28 08:49:32;;;;;;;2.40;2.20;;;21.20;82.20;;;;;;5076038;28;20336;-71
2023/08/28 08:52:05;;;;;;;2.30;2.10;;;21.20;82.10;;;;;;5077772;28;20295;-71
2023/08/28 08:54:37;;;;;;;2.53;2.17;;;21.30;82.70;;;;;;5069708;28;20213;-71
2023/08/28 08:57:09;;;;;;;2.30;2.03;;;21.30;82.60;;;;;;5071977;28;20570;-69
2023/08/28 08:59:36;;;;;;;2.17;1.97;;;21.30;82.50;;;;;;5071893;28;20205;-70
2023/08/28 09:02:04;;;;;;;4.67;2.13;;;21.30;82.30;;;;;;5071845;28;20304;-69
2023/08/28 09:04:33;;;;;;;2.43;2.20;;;21.40;82.30;;;;;;5071414;28;20585;-72
2023/08/28 09:07:00;;;;;;;2.47;2.20;;;21.40;82.30;;;;;;5071987;28;20205;-71
2023/08/28 09:09:27;;;;;;;2.67;2.20;;;21.40;82.00;;;;;;5071414;28;20205;-70
2023/08/28 09:11:54;;;;;;;2.53;2.27;;;21.40;81.70;;;;;;5071585;28;20720;-72
2023/08/28 09:14:21;;;;;;;2.10;1.90;;;21.40;81.30;;;;;;5081036;28;20299;-72
2023/08/28 09:16:48;;;;;;;2.73;2.17;;;21.40;81.30;;;;;;5087081;28;20216;-71
2023/08/28 09:19:15;;;;;;;2.93;2.63;;;21.40;81.30;;;;;;5070834;28;20209;-72
2023/08/28 09:21:47;;;;;;;3.10;2.20;;;21.50;81.40;;;;;;5081151;28;20536;-70
2023/08/28 09:24:14;;;;;;;3.27;2.10;;;21.50;81.30;;;;;;5083713;28;20192;-71
2023/08/28 09:26:51;;;;;;;3.70;2.10;;;21.60;81.40;;;;;;5074625;28;20197;-72
2023/08/28 09:29:23;;;;;;;2.27;2.07;;;21.60;81.00;;;;;;5087068;28;20279;-72
2023/08/28 09:31:49;;;;;;;3.67;2.60;;;21.60;80.60;;;;;;5081309;28;20201;-72
2023/08/28 09:34:18;;;;;;;2.30;1.90;;;21.70;80.30;;;;;;5070289;28;20237;-72
2023/08/28 09:36:46;;;;;;;2.33;2.03;;;21.70;80.10;;;;;;5070960;28;20292;-71
2023/08/28 09:39:13;;;;;;;3.33;2.10;;;21.70;80.30;;;;;;5070951;28;20619;-70
2023/08/28 09:41:42;;;;;;;3.27;2.57;;;21.80;80.00;;;;;;5077960;28;20299;-71
2023/08/28 09:44:10;;;;;;;2.60;2.40;;;21.90;80.40;;;;;;5078083;28;20204;-72
2023/08/28 09:46:37;;;;;;;4.00;2.30;;;21.90;80.20;;;;;;5070958;28;20208;-72
2023/08/28 09:49:05;;;;;;;3.10;2.00;;;22.00;80.20;;;;;;5070519;28;20213;-70
2023/08/28 09:51:43;;;;;;;4.37;2.50;;;22.00;79.80;;;;;;5070978;28;20241;-70
2023/08/28 09:54:14;;;;;;;3.10;2.20;;;22.00;78.90;;;;;;5077354;28;20250;-70
2023/08/28 09:56:41;;;;;;;3.03;2.07;;;22.10;79.00;;;;;;5090814;28;20211;-71
2023/08/28 09:59:10;;;;;;;2.20;2.00;;;22.10;78.90;;;;;;5090453;28;20212;-72
2023/08/28 10:01:37;;;;;;;2.53;2.00;;;22.20;78.90;;;;;;5084105;28;20223;-72
2023/08/28 10:04:06;;;;;;;2.63;1.80;;;22.30;78.70;;;;;;5070420;28;20242;-72
2023/08/28 10:06:35;;;;;;;2.27;1.87;;;22.30;78.30;;;;;;5070290;28;20237;-72
2023/08/28 10:09:05;;;;;;;4.33;1.80;;;22.40;78.10;;;;;;5071604;28;20323;-72
2023/08/28 10:11:38;;;;;;;2.30;1.67;;;22.50;78.60;;;;;;5075718;28;20196;-72
2023/08/28 10:14:05;;;;;;;3.30;1.80;;;22.50;77.40;;;;;;5090834;28;20235;-73
2023/08/28 10:16:37;;;;;;;4.00;2.30;;;22.70;77.20;;;;;;5088406;28;20652;-72
2023/08/28 10:19:11;;;;;;;3.50;2.40;;;22.70;76.60;;;;;;5072449;28;20193;-71
2023/08/28 10:21:39;;;;;;;3.70;2.27;;;22.70;75.70;;;;;;5081968;28;20220;-71
2023/08/28 10:24:07;;;;;;;2.73;1.73;;;22.90;75.90;;;;;;5070717;28;20209;-71
2023/08/28 10:26:36;;;;;;;2.00;1.80;;;22.90;75.70;;;;;;5070401;28;20204;-71
2023/08/28 10:29:04;;;;;;;2.63;1.90;;;23.00;75.40;;;;;;5070542;28;20233;-72
2023/08/28 10:31:32;;;;;;;2.17;1.80;;;23.10;75.20;;;;;;5082297;28;20217;-70
2023/08/28 10:34:00;;;;;;;2.20;2.00;;;23.30;75.20;;;;;;5068938;28;20220;-72
2023/08/28 10:36:29;;;;;;;2.03;1.87;;;23.30;74.20;;;;;;5070147;28;20209;-72
2023/08/28 10:38:56;;;;;;;2.73;1.80;;;23.40;73.90;;;;;;5070033;28;20233;-72
2023/08/28 10:41:24;;;;;;;2.10;1.90;;;23.50;73.60;;;;;;5086106;28;20207;-71
2023/08/28 10:43:53;;;;;;;2.27;1.90;;;23.50;73.30;;;;;;5070148;28;20197;-71
2023/08/28 10:46:23;;;;;;;1.97;1.70;;;23.50;72.20;;;;;;5069764;28;20207;-72
2023/08/28 10:48:56;;;;;;;2.73;2.13;;;23.50;72.00;;;;;;5069826;28;20669;-72
2023/08/28 10:51:31;;;;;;;1.93;1.80;;;23.60;70.60;;;;;;5076217;28;20276;-71
2023/08/28 10:54:09;;;;;;;3.30;1.90;;;23.60;71.10;;;;;;5090086;28;20207;-71
2023/08/28 10:56:38;;;;;;;2.17;1.97;;;23.70;71.00;;;;;;5078741;28;20637;-71
2023/08/28 10:59:25;;;;;;;2.53;2.10;;;23.70;71.50;;;;;;5070876;28;20220;-70
2023/08/28 11:01:54;;;;;;;1.63;1.50;;;23.80;70.70;;;;;;5059223;28;20288;-72
2023/08/28 11:04:21;;;;;;;2.40;1.80;;;23.90;70.70;;;;;;5070371;28;20232;-72
2023/08/28 11:06:48;;;;;;;3.00;1.90;;;24.00;70.60;;;;;;5070349;28;20301;-71
2023/08/28 11:09:49;;;;;;;1.60;1.50;;;24.10;70.10;;;;;;5070351;28;20295;-72
2023/08/28 11:12:28;;;;;;;2.93;1.90;;;24.10;68.50;;;;;;5070558;28;20648;-72
2023/08/28 11:15:00;;;;;;;2.60;1.67;;;24.30;69.20;;;;;;5070279;28;20306;-72
2023/08/28 11:17:30;;;;;;;1.97;1.70;;;24.30;68.60;;;;;;5070089;28;20304;-71
2023/08/28 11:20:09;;;;;;;2.57;1.70;;;24.40;68.90;;;;;;5070614;28;20211;-71
2023/08/28 11:22:37;;;;;;;1.50;1.40;;;24.50;67.00;;;;;;5070879;28;20636;-71
2023/08/28 11:25:07;;;;;;;1.67;1.57;;;24.60;67.40;;;;;;5070832;28;20300;-72
2023/08/28 11:27:42;;;;;;;2.03;1.83;;;24.70;67.20;;;;;;5072226;28;20209;-72
2023/08/28 11:30:11;;;;;;;2.10;1.47;;;24.70;65.50;;;;;;5086927;28;20266;-71
2023/08/28 11:32:40;;;;;;;1.60;1.50;;;24.70;66.10;;;;;;5082498;28;20220;-73
2023/08/28 11:35:09;;;;;;;2.20;1.60;;;24.80;66.60;;;;;;5093521;28;20220;-72
2023/08/28 11:37:37;;;;;;;1.70;1.60;;;24.90;65.50;;;;;;5092720;28;20185;-71
2023/08/28 11:40:08;;;;;;;3.77;1.53;;;24.90;65.00;;;;;;5083767;28;20199;-71
2023/08/28 11:42:36;;;;;;;1.90;1.33;;;24.90;65.00;;;;;;5010985;28;20229;-71
2023/08/28 11:45:04;;;;;;;1.53;1.43;;;24.90;65.80;;;;;;5073560;28;20202;-71
2023/08/28 11:47:34;;;;;;;2.67;1.30;;;24.90;63.90;;;;;;5080774;28;20207;-71
2023/08/28 11:50:03;;;;;;;2.27;1.47;;;25.00;63.60;;;;;;5096973;28;20638;-71
2023/08/28 11:52:31;;;;;;;1.20;1.10;;;25.00;63.90;;;;;;5092282;28;20197;-70
2023/08/28 11:55:03;;;;;;;1.47;1.37;;;25.10;64.30;;;;;;5093786;28;20223;-70
2023/08/28 11:57:30;;;;;;;2.60;1.70;;;25.10;63.60;;;;;;5057599;28;20225;-71
2023/08/28 12:00:00;;;;;;;2.57;1.23;;;25.10;63.60;;;;;;5076278;28;20322;-72
2023/08/28 12:02:28;;;;;;;1.70;1.20;;;25.10;63.10;;;;;;5092340;28;20228;-71
2023/08/28 12:04:56;;;;;;;2.43;1.50;;;25.10;62.90;;;;;;5079568;28;20201;-72
2023/08/28 12:07:26;;;;;;;2.00;1.40;;;25.10;63.60;;;;;;5074297;28;20224;-72
2023/08/28 12:09:54;;;;;;;1.53;1.40;;;25.10;63.50;;;;;;5042762;28;20205;-72
2023/08/28 12:12:22;;;;;;;1.27;1.17;;;25.20;63.40;;;;;;5076848;28;20263;-71
2023/08/28 12:14:50;;;;;;;1.80;1.60;;;25.10;62.60;;;;;;5055183;28;20232;-71
2023/08/28 12:17:20;;;;;;;1.40;1.30;;;25.10;62.80;;;;;;5091398;28;20204;-71
2023/08/28 12:19:50;;;;;;;3.40;1.77;;;25.10;62.70;;;;;;5091035;28;20208;-72
2023/08/28 12:22:20;;;;;;;2.03;1.50;;;25.00;62.50;;;;;;5089316;28;20316;-71
2023/08/28 12:24:48;;;;;;;1.70;1.60;;;25.00;62.60;;;;;;5080052;28;20216;-71
2023/08/28 12:27:18;;;;;;;2.80;1.47;;;25.00;62.80;;;;;;5080563;28;20205;-71
2023/08/28 12:29:44;;;;;;;1.60;1.50;;;24.90;62.80;;;;;;5070188;28;20432;-71
2023/08/28 12:32:17;;;;;;;3.23;1.60;;;24.90;61.90;;;;;;5071013;28;20221;-72
2023/08/28 12:34:44;;;;;;;2.20;1.70;;;24.90;62.20;;;;;;5080552;28;20213;-71
2023/08/28 12:37:13;;;;;;;1.70;1.60;;;24.90;62.50;;;;;;5070409;28;20768;-72
2023/08/28 12:39:48;;;;;;;1.47;1.37;;;24.80;62.50;;;;;;5070940;28;20220;-71
2023/08/28 12:42:15;;;;;;;2.90;2.07;;;24.70;62.80;;;;;;5071114;28;20196;-72
2023/08/28 12:44:43;;;;;;;2.60;1.80;;;24.70;62.90;;;;;;5083218;28;20313;-71
2023/08/28 12:47:11;;;;;;;2.80;1.63;;;24.70;63.10;;;;;;5088686;28;20619;-72
2023/08/28 12:49:39;;;;;;;2.00;1.43;;;24.60;62.40;;;;;;5078651;28;20665;-71
2023/08/28 12:52:07;;;;;;;4.03;2.03;;;24.60;64.10;;;;;;5078248;28;20197;-72
2023/08/28 12:54:34;;;;;;;2.93;1.70;;;24.50;63.60;;;;;;5070267;28;20323;-72